Time;durP1;ratioP1;P1;durP2;ratioP2;P2;SDS_P1;SDS_P2;PMS_P1;PMS_P2;Temp;Humidity;BMP_temperature;BMP_pressure;BME280_temperature;BME280_humidity;BME280_pressure;Samples;Min_cycle;Max_cycle;Signal;HPM_P1;HPM_P2
2023/04/01 00:03:16;;;;;;;1.20;1.10;;;;;;;;;;6079770;23;20371;-77
2023/04/01 00:05:58;;;;;;;1.60;1.50;;;;;;;;;;6079974;23;20494;-77
2023/04/01 00:08:57;;;;;;;1.77;1.37;;;;;;;;;;6079371;23;20418;-78
2023/04/01 00:11:27;;;;;;;0.87;0.87;;;;;;;;;;6079570;23;20415;-77
2023/04/01 00:17:28;;;;;;;1.23;1.13;;;;;;;;;;6150849;23;20661;-77
2023/04/01 00:20:09;;;;;;;1.57;1.20;;;;;;;;;;6258193;23;20409;-77
2023/04/01 00:28:34;;;;;;;4.00;1.30;;;;;;;;;;6195611;23;20412;-78
2023/04/01 00:31:13;;;;;;;2.97;1.23;;;;;;;;;;6196872;23;20479;-79
2023/04/01 00:33:47;;;;;;;1.40;1.30;;;;;;;;;;6265685;23;20413;-79
2023/04/01 00:36:25;;;;;;;2.37;1.40;;;;;;;;;;6267295;22;20421;-78
2023/04/01 00:39:02;;;;;;;1.77;1.17;;;;;;;;;;6266142;23;20393;-79
2023/04/01 00:41:35;;;;;;;4.70;1.07;;;;;;;;;;6265779;23;20428;-78
2023/04/01 00:44:32;;;;;;;3.13;1.23;;;;;;;;;;6265940;23;20471;-80
2023/04/01 00:47:26;;;;;;;;;;;;;;;;;;;;;
2023/04/01 00:50:03;;;;;;;5.10;1.77;;;;;;;;;;6249346;23;20965;-77
2023/04/01 00:52:41;;;;;;;2.70;0.90;;;;;;;;;;6250864;23;20460;-77
2023/04/01 00:55:19;;;;;;;2.90;1.23;;;;;;;;;;6251926;22;20441;-78
2023/04/01 00:57:57;;;;;;;2.30;1.00;;;;;;;;;;6251070;23;20409;-78
2023/04/01 01:00:26;;;;;;;2.67;1.20;;;;;;;;;;6251255;23;20956;-77
2023/04/01 01:02:54;;;;;;;3.20;1.00;;;;;;;;;;6252374;23;20405;-78
2023/04/01 01:05:29;;;;;;;1.30;1.10;;;;;;;;;;6252321;22;20461;-78
2023/04/01 01:11:15;;;;;;;1.53;1.43;;;;;;;;;;6249026;23;20461;-77
2023/04/01 01:14:06;;;;;;;4.37;1.30;;;;;;;;;;6150674;23;20417;-76
2023/04/01 01:16:53;;;;;;;3.37;1.30;;;;;;;;;;6252698;22;20944;-77
2023/04/01 01:20:04;;;;;;;;;;;;;;;;;;;;;
2023/04/01 01:23:02;;;;;;;2.73;1.17;;;;;;;;;;6252232;23;20798;-78
2023/04/01 01:25:47;;;;;;;1.70;1.60;;;;;;;;;;6253060;22;20433;-78
2023/04/01 01:28:29;;;;;;;3.93;1.10;;;;;;;;;;6253212;23;20419;-79
2023/04/01 01:31:18;;;;;;;2.73;0.87;;;;;;;;;;6252983;23;20440;-77
2023/04/01 01:34:15;;;;;;;3.07;1.20;;;;;;;;;;6252296;23;20401;-78
2023/04/01 01:37:20;;;;;;;1.73;1.00;;;;;;;;;;6252880;22;20437;-77
2023/04/01 01:40:13;;;;;;;1.40;0.90;;;;;;;;;;6251170;23;20901;-77
2023/04/01 01:43:09;;;;;;;1.63;0.80;;;;;;;;;;6250761;23;20413;-76
2023/04/01 01:45:50;;;;;;;1.60;1.00;;;;;;;;;;6251865;22;21008;-77
2023/04/01 01:48:36;;;;;;;1.57;1.10;;;;;;;;;;6254792;23;20477;-76
2023/04/01 01:51:24;;;;;;;4.17;1.30;;;;;;;;;;6255416;23;20445;-77
2023/04/01 01:54:10;;;;;;;2.63;1.13;;;;;;;;;;6253877;23;20405;-76
2023/04/01 01:57:00;;;;;;;7.50;1.50;;;;;;;;;;6255158;22;20464;-76
2023/04/01 01:59:51;;;;;;;1.60;1.17;;;;;;;;;;6254969;23;20433;-77
2023/04/01 02:05:33;;;;;;;;;;;;;;;;;;;;;
2023/04/01 02:08:11;;;;;;;0.90;0.90;;;;;;;;;;6254266;23;20405;-77
2023/04/01 02:10:57;;;;;;;1.20;0.93;;;;;;;;;;6255117;23;20435;-77
2023/04/01 02:13:36;;;;;;;2.97;0.87;;;;;;;;;;6255884;23;20416;-78
2023/04/01 02:16:24;;;;;;;4.20;0.90;;;;;;;;;;6255403;22;20969;-77
2023/04/01 02:18:57;;;;;;;1.23;0.80;;;;;;;;;;6256081;23;20397;-78
2023/04/01 02:21:47;;;;;;;;;;;;;;;;;;;;;
2023/04/01 02:24:21;;;;;;;1.03;0.77;;;;;;;;;;6254301;23;20393;-77
2023/04/01 02:27:10;;;;;;;1.10;0.83;;;;;;;;;;6254588;22;20444;-78
2023/04/01 02:29:39;;;;;;;1.47;0.93;;;;;;;;;;6254738;23;20937;-77
2023/04/01 02:32:13;;;;;;;3.20;1.00;;;;;;;;;;6256494;23;20401;-77
2023/04/01 02:37:45;;;;;;;1.03;0.93;;;;;;;;;;6249888;23;20416;-78
2023/04/01 02:40:25;;;;;;;1.93;0.77;;;;;;;;;;6253533;23;20405;-77
2023/04/01 02:43:03;;;;;;;2.00;0.90;;;;;;;;;;6254812;23;20409;-78
2023/04/01 02:45:34;;;;;;;1.50;0.83;;;;;;;;;;6253143;22;20520;-78
2023/04/01 02:48:07;;;;;;;1.70;0.87;;;;;;;;;;6253773;23;20400;-78
2023/04/01 02:50:46;;;;;;;0.80;0.70;;;;;;;;;;6253370;23;20437;-79
2023/04/01 02:53:15;;;;;;;1.93;0.70;;;;;;;;;;6263439;23;20414;-78
2023/04/01 02:55:50;;;;;;;0.60;0.60;;;;;;;;;;6259157;22;20433;-76
2023/04/01 02:58:20;;;;;;;1.03;1.03;;;;;;;;;;6260167;23;20415;-77
2023/04/01 03:01:08;;;;;;;2.10;0.83;;;;;;;;;;6260025;23;20419;-77
2023/04/01 03:04:03;;;;;;;0.70;0.60;;;;;;;;;;6199781;23;20917;-77
2023/04/01 03:06:41;;;;;;;0.83;0.50;;;;;;;;;;6258373;22;20429;-77
2023/04/01 03:09:16;;;;;;;0.70;0.70;;;;;;;;;;6258430;23;20412;-78
2023/04/01 03:12:19;;;;;;;3.80;0.80;;;;;;;;;;6259006;23;20439;-76
2023/04/01 03:17:42;;;;;;;0.80;0.50;;;;;;;;;;6256364;23;20406;-78
2023/04/01 03:23:09;;;;;;;1.27;0.67;;;;;;;;;;6253984;23;20413;-77
2023/04/01 03:25:50;;;;;;;0.77;0.70;;;;;;;;;;6256444;22;20428;-76
2023/04/01 03:31:16;;;;;;;0.53;0.53;;;;;;;;;;6252196;23;20448;-77
2023/04/01 03:34:13;;;;;;;0.70;0.70;;;;;;;;;;6253160;23;20486;-77
2023/04/01 03:36:52;;;;;;;0.77;0.50;;;;;;;;;;6255800;22;20436;-77
2023/04/01 03:39:26;;;;;;;0.93;0.63;;;;;;;;;;6252981;23;20733;-77
2023/04/01 03:42:06;;;;;;;1.37;0.70;;;;;;;;;;6252351;23;20485;-77
2023/04/01 03:44:38;;;;;;;0.73;0.73;;;;;;;;;;6251517;22;20945;-77
2023/04/01 03:47:15;;;;;;;1.43;0.70;;;;;;;;;;6251644;23;20483;-77
2023/04/01 03:49:55;;;;;;;2.60;0.80;;;;;;;;;;6250394;23;20440;-76
2023/04/01 03:52:54;;;;;;;0.77;0.70;;;;;;;;;;6258061;23;20433;-77
2023/04/01 03:55:49;;;;;;;1.63;0.70;;;;;;;;;;6260628;22;20529;-76
2023/04/01 03:58:34;;;;;;;0.70;0.70;;;;;;;;;;6257303;23;20443;-76
2023/04/01 04:01:24;;;;;;;0.80;0.80;;;;;;;;;;6253271;23;20405;-78
2023/04/01 04:04:12;;;;;;;1.33;0.70;;;;;;;;;;6258139;23;20403;-76
2023/04/01 04:06:48;;;;;;;1.43;0.70;;;;;;;;;;6263836;22;20436;-76
2023/04/01 04:09:26;;;;;;;0.77;0.60;;;;;;;;;;6266961;23;20455;-77
2023/04/01 04:12:13;;;;;;;1.40;0.97;;;;;;;;;;6259125;23;20366;-77
2023/04/01 04:15:03;;;;;;;0.60;0.60;;;;;;;;;;6260784;22;20416;-77
2023/04/01 04:17:53;;;;;;;0.60;0.60;;;;;;;;;;6259356;23;20417;-77
2023/04/01 04:23:42;;;;;;;1.07;0.97;;;;;;;;;;6132186;23;20408;-78
2023/04/01 04:26:33;;;;;;;0.70;0.70;;;;;;;;;;6255259;22;20437;-78
2023/04/01 04:29:17;;;;;;;;;;;;;;;;;;;;;
2023/04/01 04:31:54;;;;;;;1.23;0.77;;;;;;;;;;6252960;23;20406;-77
2023/04/01 04:34:23;;;;;;;1.63;0.80;;;;;;;;;;6252615;23;20404;-79
2023/04/01 04:36:55;;;;;;;1.73;1.20;;;;;;;;;;6253276;22;20548;-77
2023/04/01 04:39:30;;;;;;;1.07;0.97;;;;;;;;;;6254572;23;20440;-77
2023/04/01 04:42:09;;;;;;;2.33;0.80;;;;;;;;;;6254111;23;20409;-78
2023/04/01 04:44:59;;;;;;;0.80;0.80;;;;;;;;;;6253153;22;20416;-79
2023/04/01 04:47:34;;;;;;;0.87;0.70;;;;;;;;;;6254509;23;20431;-76
2023/04/01 04:50:12;;;;;;;1.50;0.80;;;;;;;;;;6257662;23;20458;-76
2023/04/01 04:52:50;;;;;;;1.60;0.70;;;;;;;;;;6260313;23;20467;-76
2023/04/01 04:55:28;;;;;;;1.37;0.70;;;;;;;;;;6259411;22;20433;-78
2023/04/01 04:58:19;;;;;;;;;;;;;;;;;;;;;
2023/04/01 05:00:54;;;;;;;0.80;0.80;;;;;;;;;;6259690;23;20413;-77
2023/04/01 05:03:25;;;;;;;1.17;0.70;;;;;;;;;;6251361;23;20401;-77
2023/04/01 05:05:57;;;;;;;0.70;0.70;;;;;;;;;;6258806;22;20844;-78
2023/04/01 05:08:24;;;;;;;1.27;0.70;;;;;;;;;;6261825;23;20901;-78
2023/04/01 05:10:58;;;;;;;1.73;0.90;;;;;;;;;;6264777;23;20452;-78
2023/04/01 05:13:27;;;;;;;1.30;0.70;;;;;;;;;;6266290;23;20398;-77
2023/04/01 05:15:57;;;;;;;2.23;0.90;;;;;;;;;;6263448;22;20405;-77
2023/04/01 05:18:29;;;;;;;0.80;0.63;;;;;;;;;;6260711;23;20427;-78
2023/04/01 05:21:06;;;;;;;2.60;0.93;;;;;;;;;;6261740;23;20432;-77
2023/04/01 05:23:41;;;;;;;1.90;1.00;;;;;;;;;;6254897;23;20412;-79
2023/04/01 05:26:13;;;;;;;2.33;0.90;;;;;;;;;;6254820;22;20436;-77
2023/04/01 05:28:47;;;;;;;1.57;0.97;;;;;;;;;;6254181;23;20409;-76
2023/04/01 05:31:17;;;;;;;2.23;1.00;;;;;;;;;;6257006;23;20466;-77
2023/04/01 05:33:49;;;;;;;2.77;0.73;;;;;;;;;;6235024;23;20412;-77
2023/04/01 05:36:23;;;;;;;1.13;1.03;;;;;;;;;;6260354;22;20532;-77
2023/04/01 05:41:54;;;;;;;4.00;2.10;;;;;;;;;;6253677;23;20443;-77
2023/04/01 05:44:31;;;;;;;5.67;3.70;;;;;;;;;;6254789;23;20362;-77
2023/04/01 05:52:33;;;;;;;2.50;0.80;;;;;;;;;;6238893;23;20393;-78
2023/04/01 05:55:02;;;;;;;2.47;1.10;;;;;;;;;;6258633;22;20512;-78
2023/04/01 05:57:43;;;;;;;1.47;0.93;;;;;;;;;;6257832;23;20424;-76
2023/04/01 06:00:32;;;;;;;1.93;0.90;;;;;;;;;;6258022;23;20398;-77
2023/04/01 06:03:04;;;;;;;2.87;0.80;;;;;;;;;;6259856;23;20410;-79
2023/04/01 06:06:08;;;;;;;1.53;1.07;;;;;;;;;;6259699;22;20433;-78
2023/04/01 06:08:42;;;;;;;3.43;2.63;;;;;;;;;;6238457;23;20491;-77
2023/04/01 06:11:31;;;;;;;1.17;1.07;;;;;;;;;;6259660;23;20433;-78
2023/04/01 06:17:10;;;;;;;1.00;0.90;;;;;;;;;;6251733;23;20409;-79
2023/04/01 06:19:45;;;;;;;2.00;0.80;;;;;;;;;;6255551;23;20964;-76
2023/04/01 06:22:31;;;;;;;1.60;1.00;;;;;;;;;;6254619;23;20479;-77
2023/04/01 06:25:08;;;;;;;0.90;0.70;;;;;;;;;;6253324;22;20491;-76
2023/04/01 06:27:48;;;;;;;0.77;0.77;;;;;;;;;;6251122;23;20436;-76
2023/04/01 06:30:36;;;;;;;6.27;1.10;;;;;;;;;;6248257;23;20443;-78
2023/04/01 06:33:22;;;;;;;1.13;0.77;;;;;;;;;;6248064;23;20409;-77
2023/04/01 06:36:11;;;;;;;;;;;;;;;;;;;;;
2023/04/01 06:38:49;;;;;;;1.30;1.23;;;;;;;;;;6250115;23;20438;-78
2023/04/01 06:41:29;;;;;;;1.37;0.80;;;;;;;;;;6253041;23;20382;-78
2023/04/01 06:44:01;;;;;;;0.87;0.63;;;;;;;;;;6255307;23;20513;-77
2023/04/01 06:46:43;;;;;;;1.17;0.90;;;;;;;;;;6255629;22;20950;-78
2023/04/01 06:49:27;;;;;;;1.53;0.90;;;;;;;;;;6254876;23;20417;-77
2023/04/01 06:52:01;;;;;;;0.87;0.73;;;;;;;;;;6231854;23;20437;-77
2023/04/01 06:54:33;;;;;;;2.17;0.97;;;;;;;;;;6255748;23;20447;-78
2023/04/01 06:57:10;;;;;;;1.83;1.20;;;;;;;;;;6256221;23;20390;-78
2023/04/01 06:59:39;;;;;;;1.67;1.00;;;;;;;;;;6255573;23;20521;-77
2023/04/01 07:02:26;;;;;;;0.60;0.60;;;;;;;;;;6255901;23;20405;-77
2023/04/01 07:05:01;;;;;;;0.90;0.90;;;;;;;;;;6255806;22;20440;-78
2023/04/01 07:07:43;;;;;;;1.90;0.60;;;;;;;;;;6256313;23;20423;-77
2023/04/01 07:10:14;;;;;;;1.30;0.90;;;;;;;;;;6255410;23;20413;-77
2023/04/01 07:12:47;;;;;;;1.83;0.80;;;;;;;;;;6255239;23;20429;-76
2023/04/01 07:18:05;;;;;;;1.90;0.90;;;;;;;;;;6246030;23;20428;-78
2023/04/01 07:20:44;;;;;;;1.40;1.10;;;;;;;;;;6254108;23;20408;-77
2023/04/01 07:45:07;;;;;;;3.37;0.97;;;;;;;;;;5951810;24;20402;-79
2023/04/01 07:47:53;;;;;;;2.40;0.90;;;;;;;;;;5957532;24;20410;-77
2023/04/01 07:50:28;;;;;;;1.67;0.70;;;;;;;;;;6132302;23;20887;-78
2023/04/01 07:53:04;;;;;;;1.43;1.00;;;;;;;;;;6251393;23;20775;-77
2023/04/01 07:55:37;;;;;;;1.70;0.77;;;;;;;;;;6254255;22;20507;-76
2023/04/01 08:00:58;;;;;;;2.00;0.80;;;;;;;;;;6230967;23;20393;-79
2023/04/01 08:03:42;;;;;;;1.70;1.00;;;;;;;;;;6229706;23;20401;-77
2023/04/01 08:06:20;;;;;;;1.07;1.07;;;;;;;;;;6255688;22;20452;-77
2023/04/01 08:08:55;;;;;;;1.07;0.80;;;;;;;;;;6258286;23;20448;-77
2023/04/01 08:11:28;;;;;;;0.77;0.60;;;;;;;;;;6262050;23;20448;-79
2023/04/01 08:14:05;;;;;;;0.80;0.80;;;;;;;;;;6260944;23;20504;-75
2023/04/01 08:16:39;;;;;;;3.30;3.00;;;;;;;;;;6259909;22;20432;-77
2023/04/01 08:19:22;;;;;;;1.63;0.70;;;;;;;;;;6260161;23;20408;-78
2023/04/01 08:21:53;;;;;;;1.67;0.90;;;;;;;;;;6259067;23;20398;-76
2023/04/01 08:27:55;;;;;;;0.97;0.80;;;;;;;;;;6135652;23;20457;-77
2023/04/01 08:49:17;;;;;;;1.00;0.70;;;;;;;;;;6211992;23;20449;-76
2023/04/01 08:51:58;;;;;;;2.00;0.90;;;;;;;;;;6258972;23;20440;-78
2023/04/01 08:54:39;;;;;;;1.37;0.90;;;;;;;;;;6257661;23;20408;-78
2023/04/01 08:57:13;;;;;;;0.87;0.73;;;;;;;;;;6259541;23;20905;-76
2023/04/01 09:00:02;;;;;;;;;;;;;;;;;;;;;
2023/04/01 09:02:54;;;;;;;1.30;0.87;;;;;;;;;;6260829;23;20875;-77
2023/04/01 09:05:40;;;;;;;1.13;1.10;;;;;;;;;;6229708;22;20428;-77
2023/04/01 09:08:23;;;;;;;1.03;0.70;;;;;;;;;;6198949;23;20432;-76
2023/04/01 09:11:11;;;;;;;1.13;0.90;;;;;;;;;;6256467;23;20412;-76
2023/04/01 09:13:57;;;;;;;0.90;0.90;;;;;;;;;;6253726;23;20886;-76
2023/04/01 09:16:29;;;;;;;0.83;0.83;;;;;;;;;;6249257;22;20961;-76
2023/04/01 09:19:12;;;;;;;0.90;0.90;;;;;;;;;;6246144;23;20413;-76
2023/04/01 09:22:12;;;;;;;1.93;1.10;;;;;;;;;;6241766;23;20970;-78
2023/04/01 09:25:02;;;;;;;1.00;0.80;;;;;;;;;;6244902;22;20489;-76
2023/04/01 09:27:36;;;;;;;1.13;0.90;;;;;;;;;;6197233;23;20998;-77
2023/04/01 09:30:21;;;;;;;0.80;0.80;;;;;;;;;;6247807;23;20416;-76
2023/04/01 09:33:04;;;;;;;0.80;0.80;;;;;;;;;;6248605;23;20515;-78
2023/04/01 09:35:39;;;;;;;1.40;0.73;;;;;;;;;;6182400;22;20429;-79
2023/04/01 09:38:25;;;;;;;1.60;0.90;;;;;;;;;;6248179;23;20373;-77
2023/04/01 09:40:59;;;;;;;0.70;0.60;;;;;;;;;;6249927;23;20412;-77
2023/04/01 09:43:35;;;;;;;1.20;0.77;;;;;;;;;;6253842;23;20477;-78
2023/04/01 09:46:29;;;;;;;2.00;0.80;;;;;;;;;;6257261;22;20500;-76
2023/04/01 09:49:18;;;;;;;0.73;0.73;;;;;;;;;;6257848;23;20405;-76
2023/04/01 09:51:59;;;;;;;2.57;2.10;;;;;;;;;;6258392;23;20464;-78
2023/04/01 09:57:48;;;;;;;0.50;0.50;;;;;;;;;;6250808;23;20393;-76
2023/04/01 10:03:43;;;;;;;0.67;0.67;;;;;;;;;;6256366;23;20966;-76
2023/04/01 10:06:41;;;;;;;0.67;0.67;;;;;;;;;;6229667;22;20505;-78
2023/04/01 10:09:46;;;;;;;1.03;0.80;;;;;;;;;;6259960;23;20633;-77
2023/04/01 10:12:40;;;;;;;0.80;0.80;;;;;;;;;;6255639;23;20441;-77
2023/04/01 10:15:23;;;;;;;0.70;0.70;;;;;;;;;;6257181;22;20481;-77
2023/04/01 10:18:04;;;;;;;0.60;0.60;;;;;;;;;;6255013;23;20408;-78
2023/04/01 10:20:54;;;;;;;0.50;0.50;;;;;;;;;;6255636;23;20455;-78
2023/04/01 10:23:34;;;;;;;0.60;0.60;;;;;;;;;;6254893;23;20405;-77
2023/04/01 10:26:17;;;;;;;0.70;0.70;;;;;;;;;;6255927;22;20528;-78
2023/04/01 10:28:55;;;;;;;0.67;0.67;;;;;;;;;;6229228;23;20440;-79
2023/04/01 10:31:35;;;;;;;0.50;0.50;;;;;;;;;;6251575;23;20500;-78
2023/04/01 10:34:24;;;;;;;0.50;0.50;;;;;;;;;;6252677;23;20747;-77
2023/04/01 10:37:08;;;;;;;0.53;0.50;;;;;;;;;;6254145;22;20927;-78
2023/04/01 10:40:01;;;;;;;0.70;0.70;;;;;;;;;;6256889;23;20416;-77
2023/04/01 10:43:12;;;;;;;0.60;0.60;;;;;;;;;;6260376;23;20390;-78
2023/04/01 10:46:02;;;;;;;0.47;0.47;;;;;;;;;;6261009;22;20429;-77
2023/04/01 10:48:45;;;;;;;0.50;0.50;;;;;;;;;;6260814;23;20919;-78
2023/04/01 10:51:20;;;;;;;0.83;0.83;;;;;;;;;;6261111;23;20413;-78
2023/04/01 10:53:57;;;;;;;0.70;0.70;;;;;;;;;;6259893;23;20419;-77
2023/04/01 10:56:40;;;;;;;0.60;0.60;;;;;;;;;;6253397;22;20448;-77
2023/04/01 10:59:26;;;;;;;0.53;0.53;;;;;;;;;;6250321;23;21036;-77
2023/04/01 11:02:08;;;;;;;0.70;0.70;;;;;;;;;;6251408;23;20405;-79
2023/04/01 11:05:13;;;;;;;0.60;0.53;;;;;;;;;;6248111;22;20413;-78
2023/04/01 11:08:11;;;;;;;0.47;0.47;;;;;;;;;;6252981;23;20431;-80
2023/04/01 11:14:12;;;;;;;2.77;0.80;;;;;;;;;;6239765;23;20484;-78
2023/04/01 11:17:16;;;;;;;0.80;0.80;;;;;;;;;;6252067;22;20982;-77
2023/04/01 11:20:18;;;;;;;0.70;0.70;;;;;;;;;;6244585;23;20412;-77
2023/04/01 11:23:13;;;;;;;1.20;0.90;;;;;;;;;;6127646;23;20487;-77
2023/04/01 11:26:06;;;;;;;0.60;0.60;;;;;;;;;;6127449;23;20456;-77
2023/04/01 11:31:55;;;;;;;0.60;0.60;;;;;;;;;;6248909;23;20919;-77
2023/04/01 11:34:35;;;;;;;0.60;0.60;;;;;;;;;;6255205;23;20401;-77
2023/04/01 11:37:10;;;;;;;0.60;0.50;;;;;;;;;;6252152;23;20409;-77
2023/04/01 11:39:43;;;;;;;0.50;0.50;;;;;;;;;;6248569;23;20435;-79
2023/04/01 11:42:21;;;;;;;0.40;0.40;;;;;;;;;;6248237;23;20425;-78
2023/04/01 11:44:55;;;;;;;0.40;0.40;;;;;;;;;;6248446;22;20410;-78
2023/04/01 11:47:56;;;;;;;0.60;0.60;;;;;;;;;;6249101;23;20369;-77
2023/04/01 11:50:27;;;;;;;0.80;0.70;;;;;;;;;;6246846;23;21089;-77
2023/04/01 11:53:06;;;;;;;0.40;0.40;;;;;;;;;;6248551;23;20833;-77
2023/04/01 11:55:41;;;;;;;0.70;0.70;;;;;;;;;;6248129;22;20528;-78
2023/04/01 11:58:26;;;;;;;0.50;0.50;;;;;;;;;;6248106;23;20416;-78
2023/04/01 12:00:59;;;;;;;0.50;0.50;;;;;;;;;;6230011;23;20409;-77
2023/04/01 12:03:37;;;;;;;0.80;0.57;;;;;;;;;;6247086;23;20722;-75
2023/04/01 12:06:07;;;;;;;0.53;0.53;;;;;;;;;;6252912;22;20429;-76
2023/04/01 12:08:40;;;;;;;0.50;0.50;;;;;;;;;;6254708;23;20397;-77
2023/04/01 12:11:15;;;;;;;0.80;0.80;;;;;;;;;;6253948;23;20748;-76
2023/04/01 12:13:49;;;;;;;0.57;0.50;;;;;;;;;;6246885;23;20814;-78
2023/04/01 12:16:32;;;;;;;0.50;0.50;;;;;;;;;;6246227;22;20417;-77
2023/04/01 12:19:03;;;;;;;0.63;0.60;;;;;;;;;;6241340;23;20437;-77
2023/04/01 12:21:37;;;;;;;0.60;0.50;;;;;;;;;;6245381;23;20440;-76
2023/04/01 12:24:12;;;;;;;0.47;0.47;;;;;;;;;;6244855;23;20405;-76
2023/04/01 12:26:54;;;;;;;1.33;1.00;;;;;;;;;;6245832;22;20930;-76
2023/04/01 12:29:39;;;;;;;0.87;0.50;;;;;;;;;;6250256;23;20386;-76
2023/04/01 12:32:16;;;;;;;0.60;0.60;;;;;;;;;;6251729;23;20444;-77
2023/04/01 12:34:52;;;;;;;0.50;0.50;;;;;;;;;;6250838;22;20435;-77
2023/04/01 12:37:26;;;;;;;0.70;0.70;;;;;;;;;;6249531;23;20730;-78
2023/04/01 12:39:58;;;;;;;0.53;0.53;;;;;;;;;;6248778;23;20416;-77
2023/04/01 12:42:37;;;;;;;0.80;0.80;;;;;;;;;;6248291;23;20481;-78
2023/04/01 12:45:25;;;;;;;0.80;0.80;;;;;;;;;;6248465;22;20429;-78
2023/04/01 12:48:03;;;;;;;0.70;0.70;;;;;;;;;;6250156;23;20668;-77
2023/04/01 12:50:37;;;;;;;0.60;0.60;;;;;;;;;;6250104;23;20440;-76
2023/04/01 12:53:13;;;;;;;0.50;0.50;;;;;;;;;;6247471;23;20770;-75
2023/04/01 12:55:41;;;;;;;0.67;0.60;;;;;;;;;;6248416;22;20776;-77
2023/04/01 12:58:42;;;;;;;0.40;0.40;;;;;;;;;;6248134;23;20401;-78
2023/04/01 13:01:20;;;;;;;0.50;0.50;;;;;;;;;;6251244;23;20378;-77
2023/04/01 13:03:56;;;;;;;0.37;0.37;;;;;;;;;;6248581;23;20402;-77
2023/04/01 13:06:33;;;;;;;0.60;0.60;;;;;;;;;;6249894;22;20796;-77
2023/04/01 13:09:11;;;;;;;0.43;0.43;;;;;;;;;;6249332;23;20393;-77
2023/04/01 13:11:42;;;;;;;0.97;0.63;;;;;;;;;;6247425;23;20385;-78
2023/04/01 13:14:37;;;;;;;0.50;0.50;;;;;;;;;;6246050;23;20427;-77
2023/04/01 13:17:10;;;;;;;0.73;0.50;;;;;;;;;;6248430;23;20731;-76
2023/04/01 13:19:41;;;;;;;1.23;0.60;;;;;;;;;;6248275;23;20392;-76
2023/04/01 13:22:11;;;;;;;0.40;0.40;;;;;;;;;;6246061;23;20389;-78
2023/04/01 13:24:42;;;;;;;0.60;0.60;;;;;;;;;;6245927;22;20421;-77
2023/04/01 13:27:12;;;;;;;0.40;0.40;;;;;;;;;;6246716;23;20389;-76
2023/04/01 13:29:42;;;;;;;0.40;0.40;;;;;;;;;;6246346;23;20393;-76
2023/04/01 13:32:25;;;;;;;0.50;0.50;;;;;;;;;;6246106;23;20417;-78
2023/04/01 13:35:01;;;;;;;0.60;0.60;;;;;;;;;;6246230;22;20457;-77
2023/04/01 13:37:36;;;;;;;0.60;0.60;;;;;;;;;;6247089;23;20387;-76
2023/04/01 13:40:15;;;;;;;0.37;0.37;;;;;;;;;;6247516;23;20405;-76
2023/04/01 13:42:45;;;;;;;0.50;0.50;;;;;;;;;;6247246;23;20475;-76
2023/04/01 13:45:15;;;;;;;0.60;0.60;;;;;;;;;;6247637;22;20750;-77
2023/04/01 13:47:56;;;;;;;0.60;0.60;;;;;;;;;;6246974;23;20396;-77
2023/04/01 13:50:27;;;;;;;0.50;0.50;;;;;;;;;;6250549;23;20468;-75
2023/04/01 13:53:12;;;;;;;0.50;0.50;;;;;;;;;;6252799;23;20476;-76
2023/04/01 13:55:43;;;;;;;0.60;0.60;;;;;;;;;;6255759;22;20421;-77
2023/04/01 13:58:22;;;;;;;0.50;0.50;;;;;;;;;;6255064;23;20381;-76
2023/04/01 14:00:56;;;;;;;0.43;0.43;;;;;;;;;;6254253;23;20436;-77
2023/04/01 14:03:31;;;;;;;0.40;0.40;;;;;;;;;;6251403;23;20406;-76
2023/04/01 14:06:13;;;;;;;0.40;0.40;;;;;;;;;;6251841;22;20429;-76
2023/04/01 14:08:55;;;;;;;0.50;0.50;;;;;;;;;;6250192;23;20377;-78
2023/04/01 14:11:32;;;;;;;0.60;0.60;;;;;;;;;;6225567;23;20409;-78
2023/04/01 14:14:08;;;;;;;0.40;0.40;;;;;;;;;;6249406;23;20444;-77
2023/04/01 14:16:55;;;;;;;0.40;0.40;;;;;;;;;;6249780;22;20425;-76
2023/04/01 14:19:31;;;;;;;0.53;0.53;;;;;;;;;;6229439;23;20902;-78
2023/04/01 14:22:02;;;;;;;0.70;0.70;;;;;;;;;;6247678;23;20409;-77
2023/04/01 14:24:47;;;;;;;0.70;0.60;;;;;;;;;;6247069;23;20409;-76
2023/04/01 14:27:33;;;;;;;0.60;0.60;;;;;;;;;;6247688;23;20469;-78
2023/04/01 14:30:11;;;;;;;0.57;0.50;;;;;;;;;;6250141;23;20366;-76
2023/04/01 14:32:42;;;;;;;0.67;0.40;;;;;;;;;;6249120;23;20437;-77
2023/04/01 14:35:24;;;;;;;0.50;0.50;;;;;;;;;;6251191;22;20736;-78
2023/04/01 14:38:06;;;;;;;0.47;0.47;;;;;;;;;;6251119;23;20405;-77
2023/04/01 14:40:47;;;;;;;0.30;0.30;;;;;;;;;;6250214;23;20385;-77
2023/04/01 14:43:30;;;;;;;0.50;0.50;;;;;;;;;;6250119;23;20410;-77
2023/04/01 14:46:08;;;;;;;0.40;0.40;;;;;;;;;;6249316;22;20453;-77
2023/04/01 14:48:40;;;;;;;0.40;0.40;;;;;;;;;;6250446;23;20484;-78
2023/04/01 14:51:17;;;;;;;0.50;0.50;;;;;;;;;;6249990;23;20397;-77
2023/04/01 14:53:57;;;;;;;0.50;0.50;;;;;;;;;;6249189;23;20505;-77
2023/04/01 14:56:38;;;;;;;0.50;0.50;;;;;;;;;;6248049;22;20408;-78
2023/04/01 14:59:08;;;;;;;0.53;0.53;;;;;;;;;;6249092;23;20409;-77
2023/04/01 15:01:42;;;;;;;0.60;0.60;;;;;;;;;;6248469;23;20443;-78
2023/04/01 15:04:31;;;;;;;0.60;0.60;;;;;;;;;;6246666;23;20447;-77
2023/04/01 15:07:15;;;;;;;0.60;0.60;;;;;;;;;;6248593;23;20711;-76
2023/04/01 15:09:47;;;;;;;0.60;0.60;;;;;;;;;;6247213;23;20772;-77
2023/04/01 15:12:22;;;;;;;0.50;0.50;;;;;;;;;;6247622;23;20402;-76
2023/04/01 15:15:03;;;;;;;1.07;0.50;;;;;;;;;;6245967;22;20468;-78
2023/04/01 15:17:37;;;;;;;0.40;0.40;;;;;;;;;;6245229;23;20409;-77
2023/04/01 15:20:16;;;;;;;0.90;0.60;;;;;;;;;;6247133;23;20377;-77
2023/04/01 15:22:55;;;;;;;0.70;0.70;;;;;;;;;;6246876;23;20386;-76
2023/04/01 15:25:29;;;;;;;2.70;0.50;;;;;;;;;;6246881;22;20437;-77
2023/04/01 15:28:01;;;;;;;0.70;0.70;;;;;;;;;;6246860;23;20401;-76
2023/04/01 15:30:36;;;;;;;0.83;0.83;;;;;;;;;;6246763;23;20394;-77
2023/04/01 15:33:15;;;;;;;0.87;0.87;;;;;;;;;;6246063;23;20429;-77
2023/04/01 15:35:46;;;;;;;0.50;0.50;;;;;;;;;;6247738;22;20445;-77
2023/04/01 15:38:22;;;;;;;1.07;0.60;;;;;;;;;;6247089;23;20417;-78
2023/04/01 15:40:55;;;;;;;0.70;0.60;;;;;;;;;;6247601;23;21010;-77
2023/04/01 15:43:29;;;;;;;0.60;0.50;;;;;;;;;;6246762;23;20386;-77
2023/04/01 15:46:01;;;;;;;0.40;0.40;;;;;;;;;;6254913;22;20480;-77
2023/04/01 15:48:35;;;;;;;0.60;0.60;;;;;;;;;;6252143;23;20410;-77
2023/04/01 15:51:22;;;;;;;0.57;0.50;;;;;;;;;;6251502;23;20409;-76
2023/04/01 15:54:10;;;;;;;0.60;0.60;;;;;;;;;;6250795;23;20433;-77
2023/04/01 15:56:47;;;;;;;0.50;0.50;;;;;;;;;;6250828;22;20438;-76
2023/04/01 15:59:29;;;;;;;0.70;0.70;;;;;;;;;;6251590;23;20385;-78
2023/04/01 16:01:59;;;;;;;0.60;0.60;;;;;;;;;;6256879;23;20424;-77
2023/04/01 16:04:42;;;;;;;0.67;0.67;;;;;;;;;;6264358;23;20707;-79
2023/04/01 16:07:12;;;;;;;0.80;0.80;;;;;;;;;;6266481;23;20469;-76
2023/04/01 16:09:52;;;;;;;0.50;0.50;;;;;;;;;;6255824;23;20776;-77
2023/04/01 16:12:21;;;;;;;0.57;0.57;;;;;;;;;;6247910;23;20408;-78
2023/04/01 16:14:54;;;;;;;0.50;0.50;;;;;;;;;;6247358;22;20433;-76
2023/04/01 16:17:37;;;;;;;0.50;0.50;;;;;;;;;;6248396;23;20385;-76
2023/04/01 16:20:14;;;;;;;1.17;0.50;;;;;;;;;;6248286;23;20393;-76
2023/04/01 16:22:44;;;;;;;0.80;0.70;;;;;;;;;;6247357;23;20420;-77
2023/04/01 16:25:23;;;;;;;0.60;0.60;;;;;;;;;;6246349;22;20433;-77
2023/04/01 16:27:54;;;;;;;1.20;0.50;;;;;;;;;;6246176;23;20462;-76
2023/04/01 16:30:28;;;;;;;0.70;0.70;;;;;;;;;;6249532;23;20398;-76
2023/04/01 16:32:59;;;;;;;0.80;0.53;;;;;;;;;;6252435;23;20440;-77
2023/04/01 16:35:32;;;;;;;4.53;0.73;;;;;;;;;;6255644;22;20503;-76
2023/04/01 16:38:05;;;;;;;0.80;0.80;;;;;;;;;;6257913;23;20381;-76
2023/04/01 16:40:39;;;;;;;0.60;0.60;;;;;;;;;;6257474;23;20374;-77
2023/04/01 16:43:11;;;;;;;1.30;0.67;;;;;;;;;;6258258;23;20370;-76
2023/04/01 16:45:43;;;;;;;1.70;0.50;;;;;;;;;;6257070;22;20433;-77
2023/04/01 16:48:13;;;;;;;0.77;0.77;;;;;;;;;;6258056;23;20389;-78
2023/04/01 16:50:47;;;;;;;0.80;0.73;;;;;;;;;;6260784;23;20723;-77
2023/04/01 16:53:18;;;;;;;0.73;0.67;;;;;;;;;;6260445;23;20496;-77
2023/04/01 16:55:50;;;;;;;0.60;0.60;;;;;;;;;;6259046;22;20459;-75
2023/04/01 16:58:21;;;;;;;0.83;0.83;;;;;;;;;;6259727;23;20401;-76
2023/04/01 17:00:50;;;;;;;1.40;0.80;;;;;;;;;;6257138;23;20417;-76
2023/04/01 17:03:22;;;;;;;0.83;0.83;;;;;;;;;;6257177;23;20444;-76
2023/04/01 17:05:54;;;;;;;1.10;1.10;;;;;;;;;;6255393;22;20401;-77
2023/04/01 17:08:29;;;;;;;0.70;0.70;;;;;;;;;;6256533;23;20386;-76
2023/04/01 17:11:01;;;;;;;3.07;1.13;;;;;;;;;;6255761;23;20413;-78
2023/04/01 17:13:37;;;;;;;1.90;1.20;;;;;;;;;;6255638;23;20447;-77
2023/04/01 17:16:22;;;;;;;1.20;0.87;;;;;;;;;;6257595;22;20436;-76
2023/04/01 17:18:57;;;;;;;1.50;1.30;;;;;;;;;;6258590;23;20401;-77
2023/04/01 17:21:30;;;;;;;1.23;0.80;;;;;;;;;;6257204;23;20409;-76
2023/04/01 17:24:04;;;;;;;0.83;0.83;;;;;;;;;;6256884;23;20412;-76
2023/04/01 17:26:41;;;;;;;0.87;0.87;;;;;;;;;;6256271;22;20495;-79
2023/04/01 17:29:15;;;;;;;1.27;1.00;;;;;;;;;;6253342;23;20404;-76
2023/04/01 17:31:47;;;;;;;1.47;1.40;;;;;;;;;;6254121;23;20461;-77
2023/04/01 17:34:22;;;;;;;0.93;0.93;;;;;;;;;;6253301;23;20441;-76
2023/04/01 17:36:59;;;;;;;1.23;1.17;;;;;;;;;;6250514;22;20420;-77
2023/04/01 17:39:46;;;;;;;1.63;1.50;;;;;;;;;;6256560;23;20389;-76
2023/04/01 17:42:20;;;;;;;1.40;1.30;;;;;;;;;;6254722;23;20421;-76
2023/04/01 17:44:52;;;;;;;1.70;1.40;;;;;;;;;;6253519;22;20463;-76
2023/04/01 17:47:25;;;;;;;1.50;1.00;;;;;;;;;;6253665;23;20460;-76
2023/04/01 17:49:58;;;;;;;1.00;1.00;;;;;;;;;;6255315;23;20432;-76